createdAt,value
2018-11-03T00:02:19.745Z,102475.00
2018-11-03T00:07:14.147Z,102482.00
2018-11-03T00:12:07.545Z,102475.00
2018-11-03T00:17:02.070Z,102469.00
2018-11-03T00:21:55.535Z,102470.00
2018-11-03T00:26:48.931Z,102477.00
2018-11-03T00:31:43.214Z,102470.00
2018-11-03T00:36:36.557Z,102474.00
2018-11-03T00:41:36.331Z,102469.00
2018-11-03T00:46:29.852Z,102480.00
2018-11-03T00:51:23.798Z,102481.00
2018-11-03T00:56:17.961Z,102490.00
2018-11-03T01:01:11.278Z,102493.00
2018-11-03T01:06:04.794Z,102477.00
2018-11-03T01:10:58.382Z,102478.00
2018-11-03T01:15:51.724Z,102473.00
2018-11-03T01:20:46.709Z,102470.00
2018-11-03T01:25:40.133Z,102466.00
2018-11-03T01:30:33.720Z,102473.00
2018-11-03T01:35:27.132Z,102466.00
2018-11-03T01:40:20.539Z,102463.00
2018-11-03T01:45:13.952Z,102462.00
2018-11-03T01:50:09.999Z,102467.00
2018-11-03T01:55:03.608Z,102464.00
2018-11-03T01:59:56.982Z,102477.00
2018-11-03T02:04:50.369Z,102464.00
2018-11-03T02:09:43.941Z,102471.00
2018-11-03T02:14:37.326Z,102488.00
2018-11-03T02:19:30.834Z,102485.00
2018-11-03T02:24:24.531Z,102487.00
2018-11-03T02:29:18.226Z,102487.00
2018-11-03T02:34:11.565Z,102490.00
2018-11-03T02:39:07.506Z,102495.00
2018-11-03T02:44:00.865Z,102484.00
2018-11-03T02:48:54.337Z,102488.00
2018-11-03T02:53:48.161Z,102490.00
2018-11-03T02:58:41.627Z,102477.00
2018-11-03T03:03:36.393Z,102496.00
2018-11-03T03:08:29.849Z,102500.00
2018-11-03T03:13:23.239Z,102491.00
2018-11-03T03:18:16.626Z,102491.00
2018-11-03T03:23:10.007Z,102488.00
2018-11-03T03:28:03.341Z,102498.00
2018-11-03T03:32:56.748Z,102496.00
2018-11-03T03:37:51.069Z,102485.00
2018-11-03T03:42:44.431Z,102478.00
2018-11-03T03:47:37.787Z,102481.00
2018-11-03T03:52:31.246Z,102478.00
2018-11-03T03:57:24.698Z,102475.00
2018-11-03T04:02:18.267Z,102484.00
2018-11-03T04:07:11.619Z,102501.00
2018-11-03T04:12:05.744Z,102508.00
2018-11-03T04:17:00.329Z,102513.00
2018-11-03T04:21:54.958Z,102518.00
2018-11-03T04:26:48.386Z,102515.00
2018-11-03T04:31:41.743Z,102514.00
2018-11-03T04:36:35.233Z,102502.00
2018-11-03T04:41:28.698Z,102514.00
2018-11-03T04:46:22.160Z,102506.00
2018-11-03T04:51:15.677Z,102502.00
2018-11-03T04:56:09.695Z,102499.00
2018-11-03T05:01:03.093Z,102501.00
2018-11-03T05:05:57.304Z,102505.00
2018-11-03T05:10:50.654Z,102501.00
2018-11-03T05:15:44.001Z,102501.00
2018-11-03T05:20:37.692Z,102503.00
2018-11-03T05:25:31.115Z,102508.00
2018-11-03T05:30:24.527Z,102509.00
2018-11-03T05:35:17.875Z,102502.00
2018-11-03T05:40:11.271Z,102510.00
2018-11-03T05:45:04.776Z,102510.00
2018-11-03T05:49:58.105Z,102508.00
2018-11-03T05:54:51.472Z,102520.00
2018-11-03T05:59:44.861Z,102526.00
2018-11-03T06:04:38.242Z,102523.00
2018-11-03T06:09:32.534Z,102536.00
2018-11-03T06:14:25.958Z,102544.00
2018-11-03T06:19:19.312Z,102543.00
2018-11-03T06:24:12.700Z,102537.00
2018-11-03T06:29:06.803Z,102543.00
2018-11-03T06:34:00.499Z,102552.00
2018-11-03T06:38:55.043Z,102563.00
2018-11-03T06:43:48.550Z,102567.00
2018-11-03T06:48:42.012Z,102566.00
2018-11-03T06:53:35.592Z,102566.00
2018-11-03T06:58:29.145Z,102564.00
2018-11-03T07:03:22.511Z,102573.00
2018-11-03T07:08:15.844Z,102573.00
2018-11-03T07:13:09.412Z,102562.00
2018-11-03T07:18:03.396Z,102559.00
2018-11-03T07:22:56.729Z,102554.00
2018-11-03T07:27:50.095Z,102546.00
2018-11-03T07:32:43.526Z,102532.00
2018-11-03T07:37:37.941Z,102536.00
2018-11-03T07:42:31.273Z,102535.00
2018-11-03T07:47:24.690Z,102536.00
2018-11-03T07:52:18.097Z,102526.00
2018-11-03T07:57:11.531Z,102533.00
2018-11-03T08:02:05.592Z,102528.00
2018-11-03T08:06:59.195Z,102530.00
2018-11-03T08:11:52.627Z,102516.00
2018-11-03T08:16:46.026Z,102516.00
2018-11-03T08:21:39.381Z,102511.00
2018-11-03T08:26:32.811Z,102499.00
2018-11-03T08:31:26.230Z,102500.00
2018-11-03T08:36:19.637Z,102495.00
2018-11-03T08:41:13.028Z,102501.00
2018-11-03T08:46:07.449Z,102500.00
2018-11-03T08:51:00.751Z,102509.00
2018-11-03T08:55:54.611Z,102511.00
2018-11-03T09:00:47.942Z,102505.00
2018-11-03T09:05:41.323Z,102508.00
2018-11-03T09:10:34.653Z,102513.00
2018-11-03T09:15:28.026Z,102508.00
2018-11-03T09:20:21.405Z,102500.00
2018-11-03T09:25:15.702Z,102502.00
2018-11-03T09:30:12.418Z,102501.00
2018-11-03T09:35:07.670Z,102503.00
2018-11-03T09:40:01.217Z,102499.00
2018-11-03T09:44:54.677Z,102499.00
2018-11-03T09:49:48.062Z,102495.00
2018-11-03T09:54:41.434Z,102488.00
2018-11-03T09:59:34.856Z,102482.00
2018-11-03T10:04:28.201Z,102476.00
2018-11-03T10:09:21.641Z,102462.00
2018-11-03T10:14:15.134Z,102453.00
2018-11-03T10:19:08.531Z,102454.00
2018-11-03T10:24:02.346Z,102447.00
2018-11-03T10:28:55.700Z,102446.00
2018-11-03T10:33:50.213Z,102438.00
2018-11-03T10:38:43.479Z,102436.00
2018-11-03T10:43:36.813Z,102429.00
2018-11-03T10:48:30.243Z,102421.00
2018-11-03T10:53:23.687Z,102415.00
2018-11-03T10:58:17.063Z,102416.00
2018-11-03T11:04:18.569Z,102414.00
2018-11-03T11:09:17.592Z,102405.00
2018-11-03T11:14:11.040Z,102404.00
2018-11-03T11:19:04.619Z,102394.00
2018-11-03T11:23:58.006Z,102387.00
2018-11-03T11:28:51.309Z,102380.00
2018-11-03T11:33:44.652Z,102365.00
2018-11-03T11:38:38.192Z,102355.00
2018-11-03T11:43:31.610Z,102355.00
2018-11-03T11:48:27.398Z,102353.00
2018-11-03T11:53:21.207Z,102341.00
2018-11-03T11:58:14.842Z,102335.00
2018-11-03T12:03:08.410Z,102330.00
2018-11-03T12:08:01.790Z,102330.00
2018-11-03T12:12:55.304Z,102317.00
2018-11-03T12:17:51.079Z,102326.00
2018-11-03T12:22:45.917Z,102324.00
2018-11-03T12:27:39.791Z,102312.00
2018-11-03T12:32:33.456Z,102303.00
2018-11-03T12:37:26.939Z,102311.00
2018-11-03T12:42:20.437Z,102305.00
2018-11-03T12:47:23.349Z,102286.00
2018-11-03T12:52:17.976Z,102276.00
2018-11-03T12:57:12.926Z,102260.00
2018-11-03T13:02:06.939Z,102257.00
2018-11-03T13:07:00.452Z,102257.00
2018-11-03T13:11:56.529Z,102248.00
2018-11-03T13:16:50.247Z,102245.00
2018-11-03T13:21:46.156Z,102233.00
2018-11-03T13:26:40.521Z,102232.00
2018-11-03T13:31:34.041Z,102226.00
2018-11-03T13:36:27.843Z,102237.00
2018-11-03T13:41:21.881Z,102223.00
2018-11-03T13:46:15.313Z,102211.00
2018-11-03T13:51:08.833Z,102211.00
2018-11-03T13:56:02.197Z,102214.00
2018-11-03T14:00:55.518Z,102214.00
2018-11-03T14:05:56.231Z,102200.00
2018-11-03T14:10:49.598Z,102194.00
2018-11-03T14:15:43.021Z,102198.00
2018-11-03T14:20:36.527Z,102196.00
2018-11-03T14:25:29.899Z,102188.00
2018-11-03T14:30:23.582Z,102185.00
2018-11-03T14:35:16.946Z,102177.00
2018-11-03T14:40:12.935Z,102176.00
2018-11-03T14:45:08.395Z,102171.00
2018-11-03T14:50:03.253Z,102162.00
2018-11-03T14:54:56.673Z,102148.00
2018-11-03T14:59:50.774Z,102148.00
2018-11-03T15:04:44.364Z,102140.00
2018-11-03T15:09:38.655Z,102133.00
2018-11-03T15:14:31.994Z,102119.00
2018-11-03T15:19:25.351Z,102118.00
2018-11-03T15:24:18.804Z,102113.00
2018-11-03T15:29:12.206Z,102111.00
2018-11-03T15:34:05.597Z,102109.00
2018-11-03T15:38:59.876Z,102107.00
2018-11-03T15:43:53.184Z,102102.00
2018-11-03T15:48:46.571Z,102101.00
2018-11-03T15:53:39.938Z,102099.00
2018-11-03T15:58:33.250Z,102087.00
2018-11-03T16:03:26.641Z,102077.00
2018-11-03T16:08:20.010Z,102070.00
2018-11-03T16:13:13.344Z,102067.00
2018-11-03T16:18:06.692Z,102057.00
2018-11-03T16:23:00.350Z,102063.00
2018-11-03T16:27:53.742Z,102058.00
2018-11-03T16:32:47.153Z,102057.00
2018-11-03T16:37:40.959Z,102051.00
2018-11-03T16:42:34.541Z,102056.00
2018-11-03T16:47:29.101Z,102048.00
2018-11-03T16:52:22.479Z,102047.00
2018-11-03T16:57:15.897Z,102047.00
2018-11-03T17:02:09.173Z,102063.00
2018-11-03T17:07:03.373Z,102063.00
2018-11-03T17:11:56.727Z,102062.00
2018-11-03T17:17:55.740Z,102053.00
2018-11-03T17:22:49.754Z,102039.00
2018-11-03T17:27:43.161Z,102039.00
2018-11-03T17:32:36.778Z,102045.00
2018-11-03T17:37:30.075Z,102044.00
2018-11-03T17:42:23.421Z,102046.00
2018-11-03T17:47:17.716Z,102039.00
2018-11-03T17:52:11.974Z,102034.00
2018-11-03T17:57:05.540Z,102032.00
2018-11-03T18:01:58.904Z,102033.00
2018-11-03T18:06:52.266Z,102020.00
2018-11-03T18:11:45.686Z,102023.00
2018-11-03T18:16:39.066Z,102020.00
2018-11-03T18:21:33.189Z,102016.00
2018-11-03T18:26:26.532Z,102025.00
2018-11-03T18:31:19.921Z,102030.00
2018-11-03T18:36:13.344Z,102018.00
2018-11-03T18:41:06.764Z,102011.00
2018-11-03T18:46:00.158Z,101998.00
2018-11-03T18:50:53.501Z,101996.00
2018-11-03T18:55:47.042Z,101989.00
2018-11-03T19:00:40.372Z,101985.00
2018-11-03T19:05:33.797Z,101986.00
2018-11-03T19:10:27.818Z,101994.00
2018-11-03T19:15:21.165Z,101995.00
2018-11-03T19:20:15.352Z,101991.00
2018-11-03T19:25:10.842Z,101994.00
2018-11-03T19:30:05.752Z,101987.00
2018-11-03T19:34:59.125Z,101990.00
2018-11-03T19:39:52.502Z,101981.00
2018-11-03T19:44:45.808Z,101982.00
2018-11-03T19:49:39.109Z,101975.00
2018-11-03T19:54:33.442Z,101971.00
2018-11-03T19:59:26.796Z,101966.00
2018-11-03T20:04:20.141Z,101963.00
2018-11-03T20:09:13.827Z,101959.00
2018-11-03T20:14:07.801Z,101962.00
2018-11-03T20:19:01.685Z,101958.00
2018-11-03T20:23:55.012Z,101957.00
2018-11-03T20:28:48.347Z,101960.00
2018-11-03T20:33:41.878Z,101942.00
2018-11-03T20:38:35.323Z,101939.00
2018-11-03T20:43:28.701Z,101936.00
2018-11-03T20:48:22.060Z,101932.00
2018-11-03T20:53:15.970Z,101925.00
2018-11-03T20:58:09.362Z,101928.00
2018-11-03T21:03:02.661Z,101916.00
2018-11-03T21:07:56.029Z,101915.00
2018-11-03T21:12:49.425Z,101919.00
2018-11-03T21:17:42.739Z,101905.00
2018-11-03T21:22:36.091Z,101906.00
2018-11-03T21:27:29.460Z,101898.00
2018-11-03T21:32:23.006Z,101898.00
2018-11-03T21:37:16.153Z,101887.00
2018-11-03T21:42:10.071Z,101881.00
2018-11-03T21:47:03.565Z,101879.00
2018-11-03T21:51:57.002Z,101871.00
2018-11-03T21:56:50.372Z,101863.00
2018-11-03T22:01:43.855Z,101855.00
2018-11-03T22:06:37.625Z,101845.00
2018-11-03T22:11:31.067Z,101835.00
2018-11-03T22:16:24.442Z,101832.00
2018-11-03T22:21:17.751Z,101830.00
2018-11-03T22:26:11.541Z,101829.00
2018-11-03T22:31:04.897Z,101828.00
2018-11-03T22:35:58.290Z,101814.00
2018-11-03T22:40:51.562Z,101804.00
2018-11-03T22:45:44.903Z,101794.00
2018-11-03T22:50:38.359Z,101791.00
2018-11-03T22:55:32.458Z,101784.00
2018-11-03T23:00:25.959Z,101774.00
2018-11-03T23:05:19.332Z,101766.00
2018-11-03T23:10:13.352Z,101758.00
2018-11-03T23:15:08.269Z,101761.00
2018-11-03T23:20:01.598Z,101763.00
2018-11-03T23:24:54.935Z,101746.00
2018-11-03T23:29:48.514Z,101741.00
2018-11-03T23:34:41.688Z,101731.00
2018-11-03T23:39:35.065Z,101724.00
2018-11-03T23:44:28.486Z,101720.00
2018-11-03T23:49:21.800Z,101708.00
2018-11-03T23:54:15.595Z,101700.00
2018-11-03T23:59:09.172Z,101692.00
